Sea-land Lightning — WDB9986 — position and weather

sailwx.info

Track history (hours):
 
Tides and Currents Weather Stations Pressure Air Temp Water Temp Dewpoint Dewpoint Depression Visibility Wind Speed Wind Dir Waves Ship Positions

Sea-land Lightning

More information available from US FCC via Universal Licensing System.

Last reported at 2014-Jul-19 01:30 UTC. Time now 2014-Jul-23 13:35 UTC.
Position N 38°37' W 125°07'.

Type: Ship (hazmat cat A). MMSI: 303316000.

Date/timePositionNaut miles runAvg speedWind from/ knotsBaromVisibWave heightAir tempDewpointWater temp
2014-Jul-19 01:30N 38°37' W 125°07'1818.2
2014-Jul-19 00:32N 38°31' W 124°46'1818.3
2014-Jul-18 23:33N 38°24' W 124°24'1716.7
2014-Jul-18 22:33N 38°19' W 124°04'1514.7
2014-Jul-18 21:33N 38°14' W 123°47'1414.2
2014-Jul-18 20:33N 38°10' W 123°29'1313.2
2014-Jul-18 19:33N 38°04' W 123°14'1514.8
2014-Jul-18 18:33N 37°55' W 122°60'1514.6
2014-Jul-18 17:33N 37°47' W 122°44'1313.4
2014-Jul-18 16:33N 37°50' W 122°27'6 6.3
2014-Jul-18 15:32N 37°49' W 122°19'0 0.0
2014-Jul-18 14:32N 37°49' W 122°19'0 0.0
2014-Jul-18 13:32N 37°49' W 122°19'0 0.0
2014-Jul-18 12:32N 37°49' W 122°19'0 0.0
2014-Jul-18 11:32N 37°49' W 122°19'0 0.0
2014-Jul-18 10:32N 37°49' W 122°19'0 0.0
2014-Jul-18 09:32N 37°49' W 122°19'0 0.0
2014-Jul-18 08:32N 37°49' W 122°19'0 0.0
2014-Jul-18 07:32N 37°49' W 122°19'0 0.0
2014-Jul-18 06:32N 37°49' W 122°19'0 0.0
2014-Jul-18 05:32N 37°49' W 122°19'0 0.0
2014-Jul-18 04:32N 37°49' W 122°19'0 0.0
2014-Jul-18 03:32N 37°49' W 122°19'0 0.0
2014-Jul-18 02:32N 37°49' W 122°19'0 0.0
2014-Jul-18 01:32N 37°49' W 122°19'0 0.0
2014-Jul-18 00:32N 37°49' W 122°19'0 0.0
2014-Jul-17 23:32N 37°49' W 122°19'0 0.0
2014-Jul-17 22:32N 37°49' W 122°19'0 0.0
2014-Jul-17 21:32N 37°49' W 122°19'0 0.0
2014-Jul-17 20:32N 37°49' W 122°19'0 0.0
2014-Jul-17 19:32N 37°49' W 122°19'0 0.0
2014-Jul-17 18:32N 37°49' W 122°19'0 0.0
2014-Jul-17 17:32N 37°49' W 122°19'0 0.0
2014-Jul-17 16:29N 37°49' W 122°19'0 0.0
2014-Jul-17 15:32N 37°49' W 122°19'0 0.0
2014-Jul-17 14:32N 37°49' W 122°19'0 0.1
2014-Jul-17 13:33N 37°49' W 122°19'8 8.5
2014-Jul-17 12:33N 37°48' W 122°30'1212.2
2014-Jul-17 11:34N 37°42' W 122°44'1212.4
2014-Jul-17 10:34N 37°36' W 122°57'1110.8
2014-Jul-17 09:34N 37°26' W 123°02'1413.6
2014-Jul-17 08:33N 37°12' W 123°00'1414.1
2014-Jul-17 07:33N 36°59' W 122°55'1110.9
2014-Jul-17 06:33N 36°49' W 122°49'1111.1
2014-Jul-17 05:33N 36°39' W 122°43'1111.5
2014-Jul-17 04:33N 36°29' W 122°37'1211.6
2014-Jul-17 03:33N 36°18' W 122°31'1111.5
2014-Jul-17 02:33N 36°08' W 122°25'1211.4
2014-Jul-17 01:33N 35°58' W 122°17'1110.6
2014-Jul-17 00:33N 35°49' W 122°10'1211.5
2014-Jul-16 23:33N 35°40' W 122°01'1111.4
2014-Jul-16 22:33N 35°32' W 121°52'1111.2
2014-Jul-16 21:33N 35°23' W 121°43'1111.2
2014-Jul-16 20:33N 35°14' W 121°35'1111.0
2014-Jul-16 19:32N 35°05' W 121°26'1211.1
2014-Jul-16 18:27N 34°56' W 121°17'1311.6
2014-Jul-16 17:20N 34°45' W 121°08'4611.5
2014-Jul-16 13:19N 34°19' W 120°22'811.0
2014-Jul-16 12:33N 34°17' W 120°12'1010.2
2014-Jul-16 11:34N 34°15' W 120°00'10 9.8
2014-Jul-16 10:33N 34°12' W 119°49'10 9.9
2014-Jul-16 09:33N 34°09' W 119°37'1010.3
2014-Jul-16 08:33N 34°06' W 119°25'1410.4
2014-Jul-16 07:13N 34°02' W 119°09'2210.4
2014-Jul-16 05:06N 33°50' W 118°47'710.3
2014-Jul-16 04:22N 33°47' W 118°39'20 3.4
2014-Jul-15 22:28N 33°44' W 118°15'0 0.0
2014-Jul-15 21:31N 33°44' W 118°15'0 0.0
2014-Jul-15 20:31N 33°44' W 118°15'0 0.0
2014-Jul-15 19:31N 33°44' W 118°15'0 0.0
2014-Jul-15 18:31N 33°44' W 118°15'0 0.0
2014-Jul-15 17:31N 33°44' W 118°15'0 0.0
2014-Jul-15 16:22N 33°44' W 118°15'0 0.0
2014-Jul-15 15:25N 33°44' W 118°15'0 0.0
2014-Jul-15 14:31N 33°44' W 118°15'0 0.0
2014-Jul-15 13:31N 33°44' W 118°15'0 0.0
2014-Jul-15 12:28N 33°44' W 118°15'0 0.0
2014-Jul-15 11:07N 33°44' W 118°15'0 0.0
2014-Jul-15 10:28N 33°44' W 118°15'0 0.0
2014-Jul-15 09:31N 33°44' W 118°15'0 0.0
2014-Jul-15 08:31N 33°44' W 118°15'0 0.0
2014-Jul-15 07:28N 33°44' W 118°15'0 0.0
2014-Jul-15 06:28N 33°44' W 118°15'0 0.0
2014-Jul-15 05:31N 33°44' W 118°15'0 0.0
2014-Jul-15 04:13N 33°44' W 118°15'0 0.0
2014-Jul-15 03:28N 33°44' W 118°15'0 0.0
2014-Jul-15 02:19N 33°44' W 118°15'0 0.0
2014-Jul-15 01:28N 33°44' W 118°15'0 0.0
2014-Jul-15 00:31N 33°44' W 118°15'0 0.0
2014-Jul-14 22:31N 33°44' W 118°15'0 0.0
2014-Jul-14 21:19N 33°44' W 118°15'0 0.0
2014-Jul-14 20:22N 33°44' W 118°15'0 0.0
2014-Jul-14 19:22N 33°44' W 118°15'0 0.0
2014-Jul-14 18:25N 33°44' W 118°15'0 0.0
2014-Jul-14 17:25N 33°44' W 118°15'0 0.0
2014-Jul-14 15:28N 33°44' W 118°15'0 0.0
2014-Jul-14 14:31N 33°44' W 118°15'0 0.0
2014-Jul-14 13:31N 33°44' W 118°15'0 0.0
2014-Jul-14 12:29N 33°44' W 118°15'0 0.1
2014-Jul-14 11:34N 33°44' W 118°15'8 6.4
2014-Jul-14 10:18N 33°36' W 118°17'7 9.1
2014-Jul-14 09:33N 33°38' W 118°25'10 9.5
2014-Jul-14 08:33N 33°43' W 118°35'9 9.3
2014-Jul-14 07:33N 33°48' W 118°45'1212.3
2014-Jul-14 06:33N 33°54' W 118°57'1313.4
2014-Jul-14 05:33N 34°01' W 119°11'8 8.1
2014-Jul-14 04:33N 34°04' W 119°20'9 8.9
2014-Jul-14 03:33N 34°06' W 119°31'1110.8
2014-Jul-14 02:33N 34°08' W 119°43'1111.2
2014-Jul-14 01:33N 34°12' W 119°56'1110.7
2014-Jul-14 00:33N 34°14' W 120°09'1313.2
2014-Jul-13 23:33N 34°17' W 120°24'2713.5
2014-Jul-13 21:33N 34°25' W 120°56'1414.0
2014-Jul-13 20:31N 34°28' W 121°13'1513.6
2014-Jul-13 19:27N 34°31' W 121°30'1415.3
2014-Jul-13 18:33N 34°34' W 121°46'1818.1
2014-Jul-13 17:33N 34°38' W 122°08'1918.8
2014-Jul-13 16:33N 34°42' W 122°30'2019.5
2014-Jul-13 15:33N 34°46' W 122°53'1817.6
2014-Jul-13 14:33N 34°50' W 123°15'1616.3
2014-Jul-13 13:33N 34°53' W 123°34'1716.6
2014-Jul-13 12:33N 34°56' W 123°54'1716.7
2014-Jul-13 11:33N 34°59' W 124°14'1716.9
2014-Jul-13 10:33N 35°03' W 124°34'1816.9
2014-Jul-13 09:28N 35°06' W 124°56'1616.9
2014-Jul-13 08:33N 35°09' W 125°15'1817.0
2014-Jul-13 07:29N 35°12' W 125°36'1617.0
2014-Jul-13 06:33N 35°18' W 125°54'2316.9
2014-Jul-13 05:11N 35°28' W 126°20'18816.8
2014-Jul-12 18:00N 36°54' W 129°48'44518.5 340 / 51022.010.8 0.519.015.918.0
2014-Jul-11 18:00N 39°36' W 138°36'   120 / 51022.010.8 0.516.016.018.0
Track history (hours):
 
Tides and Currents Weather Stations Pressure Air Temp Water Temp Dewpoint Dewpoint Depression Visibility Wind Speed Wind Dir Waves Ship Positions

Sea-land Lightning

More information available from US FCC via Universal Licensing System.

Last reported at 2014-Jul-19 01:30 UTC. Time now 2014-Jul-23 13:35 UTC.
Position N 38°37' W 125°07'.

Type: Ship (hazmat cat A). MMSI: 303316000.

Date/timePositionNaut miles runAvg speedWind from/ knotsBaromVisibWave heightAir tempDewpointWater temp
2014-Jul-19 01:30N 38°37' W 125°07'1818.2
2014-Jul-19 00:32N 38°31' W 124°46'1818.3
2014-Jul-18 23:33N 38°24' W 124°24'1716.7
2014-Jul-18 22:33N 38°19' W 124°04'1514.7
2014-Jul-18 21:33N 38°14' W 123°47'1414.2
2014-Jul-18 20:33N 38°10' W 123°29'1313.2
2014-Jul-18 19:33N 38°04' W 123°14'1514.8
2014-Jul-18 18:33N 37°55' W 122°60'1514.6
2014-Jul-18 17:33N 37°47' W 122°44'1313.4
2014-Jul-18 16:33N 37°50' W 122°27'6 6.3
2014-Jul-18 15:32N 37°49' W 122°19'0 0.0
2014-Jul-18 14:32N 37°49' W 122°19'0 0.0
2014-Jul-18 13:32N 37°49' W 122°19'0 0.0
2014-Jul-18 12:32N 37°49' W 122°19'0 0.0
2014-Jul-18 11:32N 37°49' W 122°19'0 0.0
2014-Jul-18 10:32N 37°49' W 122°19'0 0.0
2014-Jul-18 09:32N 37°49' W 122°19'0 0.0
2014-Jul-18 08:32N 37°49' W 122°19'0 0.0
2014-Jul-18 07:32N 37°49' W 122°19'0 0.0
2014-Jul-18 06:32N 37°49' W 122°19'0 0.0
2014-Jul-18 05:32N 37°49' W 122°19'0 0.0
2014-Jul-18 04:32N 37°49' W 122°19'0 0.0
2014-Jul-18 03:32N 37°49' W 122°19'0 0.0
2014-Jul-18 02:32N 37°49' W 122°19'0 0.0
2014-Jul-18 01:32N 37°49' W 122°19'0 0.0
2014-Jul-18 00:32N 37°49' W 122°19'0 0.0
2014-Jul-17 23:32N 37°49' W 122°19'0 0.0
2014-Jul-17 22:32N 37°49' W 122°19'0 0.0
2014-Jul-17 21:32N 37°49' W 122°19'0 0.0
2014-Jul-17 20:32N 37°49' W 122°19'0 0.0
2014-Jul-17 19:32N 37°49' W 122°19'0 0.0
2014-Jul-17 18:32N 37°49' W 122°19'0 0.0
2014-Jul-17 17:32N 37°49' W 122°19'0 0.0
2014-Jul-17 16:29N 37°49' W 122°19'0 0.0
2014-Jul-17 15:32N 37°49' W 122°19'0 0.0
2014-Jul-17 14:32N 37°49' W 122°19'0 0.1
2014-Jul-17 13:33N 37°49' W 122°19'8 8.5
2014-Jul-17 12:33N 37°48' W 122°30'1212.2
2014-Jul-17 11:34N 37°42' W 122°44'1212.4
2014-Jul-17 10:34N 37°36' W 122°57'1110.8
2014-Jul-17 09:34N 37°26' W 123°02'1413.6
2014-Jul-17 08:33N 37°12' W 123°00'1414.1
2014-Jul-17 07:33N 36°59' W 122°55'1110.9
2014-Jul-17 06:33N 36°49' W 122°49'1111.1
2014-Jul-17 05:33N 36°39' W 122°43'1111.5
2014-Jul-17 04:33N 36°29' W 122°37'1211.6
2014-Jul-17 03:33N 36°18' W 122°31'1111.5
2014-Jul-17 02:33N 36°08' W 122°25'1211.4
2014-Jul-17 01:33N 35°58' W 122°17'1110.6
2014-Jul-17 00:33N 35°49' W 122°10'1211.5
2014-Jul-16 23:33N 35°40' W 122°01'1111.4
2014-Jul-16 22:33N 35°32' W 121°52'1111.2
2014-Jul-16 21:33N 35°23' W 121°43'1111.2
2014-Jul-16 20:33N 35°14' W 121°35'1111.0
2014-Jul-16 19:32N 35°05' W 121°26'1211.1
2014-Jul-16 18:27N 34°56' W 121°17'1311.6
2014-Jul-16 17:20N 34°45' W 121°08'4611.5
2014-Jul-16 13:19N 34°19' W 120°22'811.0
2014-Jul-16 12:33N 34°17' W 120°12'1010.2
2014-Jul-16 11:34N 34°15' W 120°00'10 9.8
2014-Jul-16 10:33N 34°12' W 119°49'10 9.9
2014-Jul-16 09:33N 34°09' W 119°37'1010.3
2014-Jul-16 08:33N 34°06' W 119°25'1410.4
2014-Jul-16 07:13N 34°02' W 119°09'2210.4
2014-Jul-16 05:06N 33°50' W 118°47'710.3
2014-Jul-16 04:22N 33°47' W 118°39'20 3.4
2014-Jul-15 22:28N 33°44' W 118°15'0 0.0
2014-Jul-15 21:31N 33°44' W 118°15'0 0.0
2014-Jul-15 20:31N 33°44' W 118°15'0 0.0
2014-Jul-15 19:31N 33°44' W 118°15'0 0.0
2014-Jul-15 18:31N 33°44' W 118°15'0 0.0
2014-Jul-15 17:31N 33°44' W 118°15'0 0.0
2014-Jul-15 16:22N 33°44' W 118°15'0 0.0
2014-Jul-15 15:25N 33°44' W 118°15'0 0.0
2014-Jul-15 14:31N 33°44' W 118°15'0 0.0
2014-Jul-15 13:31N 33°44' W 118°15'0 0.0
2014-Jul-15 12:28N 33°44' W 118°15'0 0.0
2014-Jul-15 11:07N 33°44' W 118°15'0 0.0
2014-Jul-15 10:28N 33°44' W 118°15'0 0.0
2014-Jul-15 09:31N 33°44' W 118°15'0 0.0
2014-Jul-15 08:31N 33°44' W 118°15'0 0.0
2014-Jul-15 07:28N 33°44' W 118°15'0 0.0
2014-Jul-15 06:28N 33°44' W 118°15'0 0.0
2014-Jul-15 05:31N 33°44' W 118°15'0 0.0
2014-Jul-15 04:13N 33°44' W 118°15'0 0.0
2014-Jul-15 03:28N 33°44' W 118°15'0 0.0
2014-Jul-15 02:19N 33°44' W 118°15'0 0.0
2014-Jul-15 01:28N 33°44' W 118°15'0 0.0
2014-Jul-15 00:31N 33°44' W 118°15'0 0.0
2014-Jul-14 22:31N 33°44' W 118°15'0 0.0
2014-Jul-14 21:19N 33°44' W 118°15'0 0.0
2014-Jul-14 20:22N 33°44' W 118°15'0 0.0
2014-Jul-14 19:22N 33°44' W 118°15'0 0.0
2014-Jul-14 18:25N 33°44' W 118°15'0 0.0
2014-Jul-14 17:25N 33°44' W 118°15'0 0.0
2014-Jul-14 15:28N 33°44' W 118°15'0 0.0
2014-Jul-14 14:31N 33°44' W 118°15'0 0.0
2014-Jul-14 13:31N 33°44' W 118°15'0 0.0
2014-Jul-14 12:29N 33°44' W 118°15'0 0.1
2014-Jul-14 11:34N 33°44' W 118°15'8 6.4
2014-Jul-14 10:18N 33°36' W 118°17'7 9.1
2014-Jul-14 09:33N 33°38' W 118°25'10 9.5
2014-Jul-14 08:33N 33°43' W 118°35'9 9.3
2014-Jul-14 07:33N 33°48' W 118°45'1212.3
2014-Jul-14 06:33N 33°54' W 118°57'1313.4
2014-Jul-14 05:33N 34°01' W 119°11'8 8.1
2014-Jul-14 04:33N 34°04' W 119°20'9 8.9
2014-Jul-14 03:33N 34°06' W 119°31'1110.8
2014-Jul-14 02:33N 34°08' W 119°43'1111.2
2014-Jul-14 01:33N 34°12' W 119°56'1110.7
2014-Jul-14 00:33N 34°14' W 120°09'1313.2
2014-Jul-13 23:33N 34°17' W 120°24'2713.5
2014-Jul-13 21:33N 34°25' W 120°56'1414.0
2014-Jul-13 20:31N 34°28' W 121°13'1513.6
2014-Jul-13 19:27N 34°31' W 121°30'1415.3
2014-Jul-13 18:33N 34°34' W 121°46'1818.1
2014-Jul-13 17:33N 34°38' W 122°08'1918.8
2014-Jul-13 16:33N 34°42' W 122°30'2019.5
2014-Jul-13 15:33N 34°46' W 122°53'1817.6
2014-Jul-13 14:33N 34°50' W 123°15'1616.3
2014-Jul-13 13:33N 34°53' W 123°34'1716.6
2014-Jul-13 12:33N 34°56' W 123°54'1716.7
2014-Jul-13 11:33N 34°59' W 124°14'1716.9
2014-Jul-13 10:33N 35°03' W 124°34'1816.9
2014-Jul-13 09:28N 35°06' W 124°56'1616.9
2014-Jul-13 08:33N 35°09' W 125°15'1817.0
2014-Jul-13 07:29N 35°12' W 125°36'1617.0
2014-Jul-13 06:33N 35°18' W 125°54'2316.9
2014-Jul-13 05:11N 35°28' W 126°20'18816.8
2014-Jul-12 18:00N 36°54' W 129°48'44518.5 340 / 51022.010.8 0.519.015.918.0
2014-Jul-11 18:00N 39°36' W 138°36'   120 / 51022.010.8 0.516.016.018.0

Dump ship's entire track history